Time;durP1;ratioP1;P1;durP2;ratioP2;P2;SDS_P1;SDS_P2;PMS_P1;PMS_P2;Temp;Humidity;BMP_temperature;BMP_pressure;BME280_temperature;BME280_humidity;BME280_pressure;Samples;Min_cycle;Max_cycle;Signal;HPM_P1;HPM_P2
2021/01/20 00:00:32;;;;;;;;;;;;;;;5.39;89.00;100005.56;4975254;28;944;-78
2021/01/20 00:02:57;;;;;;;;;;;;;;;5.34;88.99;99998.31;4976883;28;2193;-79
2021/01/20 00:05:23;;;;;;;;;;;;;;;5.39;88.31;100008.28;4976812;28;1004;-78
2021/01/20 00:07:48;;;;;;;;;;;;;;;5.36;88.04;99993.31;4976036;28;1992;-76
2021/01/20 00:10:15;;;;;;;;;;;;;;;5.37;87.69;99983.97;4957882;29;905;-77
2021/01/20 00:12:43;;;;;;;;;;;;;;;5.40;87.44;99997.00;4975059;28;1995;-77
2021/01/20 00:15:09;;;;;;;;;;;;;;;5.36;87.51;99981.56;4977651;28;886;-77
2021/01/20 00:17:36;;;;;;;;;;;;;;;5.30;88.25;99980.94;4978448;28;1402;-78
2021/01/20 00:20:01;;;;;;;;;;;;;;;5.34;87.21;99978.34;4976699;28;980;-78
2021/01/20 00:22:28;;;;;;;;;;;;;;;5.36;87.03;99987.03;4978019;28;1871;-77
2021/01/20 00:24:54;;;;;;;;;;;;;;;5.33;87.48;99974.00;4979107;28;2085;-77
2021/01/20 00:27:20;;;;;;;;;;;;;;;5.34;86.92;99964.66;4974197;28;2239;-77
2021/01/20 00:29:45;;;;;;;;;;;;;;;5.31;87.22;99987.22;4976687;28;1950;-78
2021/01/20 00:32:11;;;;;;;;;;;;;;;5.36;86.63;99974.16;4977088;28;1067;-78
2021/01/20 00:34:36;;;;;;;;;;;;;;;5.33;86.95;99974.00;4976440;28;882;-77
2021/01/20 00:37:01;;;;;;;;;;;;;;;5.27;87.22;99970.66;4975727;28;1933;-79
2021/01/20 00:39:26;;;;;;;;;;;;;;;5.22;87.59;99966.16;4975845;28;2234;-78
2021/01/20 00:41:52;;;;;;;;;;;;;;;5.27;87.09;99956.97;4976260;28;1965;-77
2021/01/20 00:44:17;;;;;;;;;;;;;;;5.26;86.68;99978.06;4976409;28;831;-78
2021/01/20 00:46:42;;;;;;;;;;;;;;;5.22;86.50;99973.56;4975999;28;877;-77
2021/01/20 00:49:08;;;;;;;;;;;;;;;5.23;86.17;99961.50;4976252;28;1283;-78
2021/01/20 00:51:33;;;;;;;;;;;;;;;5.19;86.72;99966.84;4976039;28;2223;-77
2021/01/20 00:53:58;;;;;;;;;;;;;;;5.17;86.66;99960.06;4976028;28;2091;-78
2021/01/20 00:56:24;;;;;;;;;;;;;;;5.18;86.47;99939.78;4976957;28;1008;-79
2021/01/20 00:58:49;;;;;;;;;;;;;;;5.13;86.61;99957.19;4976616;28;1891;-79
2021/01/20 01:01:15;;;;;;;;;;;;;;;5.14;86.41;99949.78;4976762;28;1890;-78
2021/01/20 01:03:40;;;;;;;;;;;;;;;5.09;86.61;99935.16;5011326;28;981;-78
2021/01/20 01:06:06;;;;;;;;;;;;;;;5.09;86.25;99948.84;4979451;28;2145;-78
2021/01/20 01:08:32;;;;;;;;;;;;;;;5.10;86.08;99955.09;4978635;28;1893;-78
2021/01/20 01:10:58;;;;;;;;;;;;;;;5.05;86.60;99949.81;4980395;28;830;-78
2021/01/20 01:13:23;;;;;;;;;;;;;;;5.03;86.71;99941.13;4983942;28;984;-77
2021/01/20 01:15:49;;;;;;;;;;;;;;;5.03;86.28;99932.94;4985597;28;1950;-77
2021/01/20 01:18:14;;;;;;;;;;;;;;;5.01;86.45;99922.31;4979422;28;1334;-78
2021/01/20 01:20:40;;;;;;;;;;;;;;;5.00;86.38;99933.56;4979452;28;1949;-77
2021/01/20 01:23:05;;;;;;;;;;;;;;;5.03;85.99;99935.66;4978928;28;885;-78
2021/01/20 01:25:30;;;;;;;;;;;;;;;5.01;86.07;99943.41;4979768;28;1803;-77
2021/01/20 01:27:55;;;;;;;;;;;;;;;5.02;85.97;99943.06;4984262;28;1291;-78
2021/01/20 01:30:21;;;;;;;;;;;;;;;4.97;85.95;99932.31;4978548;28;2067;-80
2021/01/20 01:32:46;;;;;;;;;;;;;;;5.00;86.15;99936.31;4979112;28;2015;-78
2021/01/20 01:35:12;;;;;;;;;;;;;;;4.98;86.07;99928.44;4979924;28;863;-78
2021/01/20 01:37:38;;;;;;;;;;;;;;;5.01;86.18;99921.50;4983141;28;1290;-78
2021/01/20 01:40:05;;;;;;;;;;;;;;;4.98;85.72;99917.47;4980225;28;1093;-78
2021/01/20 01:42:31;;;;;;;;;;;;;;;4.96;85.58;99916.22;4979745;28;1973;-78
2021/01/20 01:44:57;;;;;;;;;;;;;;;4.93;85.82;99916.88;4978845;28;2469;-78
2021/01/20 01:47:23;;;;;;;;;;;;;;;4.94;86.07;99913.03;4978895;28;1263;-78
2021/01/20 01:49:49;;;;;;;;;;;;;;;4.93;86.08;99908.66;4979101;28;1739;-77
2021/01/20 01:52:15;;;;;;;;;;;;;;;4.86;86.88;99911.91;4978691;28;932;-77
2021/01/20 01:54:40;;;;;;;;;;;;;;;4.82;87.04;99910.97;4979284;28;838;-77
2021/01/20 01:57:06;;;;;;;;;;;;;;;4.73;87.67;99912.94;4978182;28;2022;-78
2021/01/20 01:59:31;;;;;;;;;;;;;;;4.75;87.17;99906.00;4979497;28;1315;-79
2021/01/20 02:01:56;;;;;;;;;;;;;;;4.80;86.92;99894.09;4978403;28;1959;-78
2021/01/20 02:04:22;;;;;;;;;;;;;;;4.83;86.13;99883.28;4977231;28;1932;-77
2021/01/20 02:06:51;;;;;;;;;;;;;;;4.81;86.21;99898.41;4978923;28;890;-78
2021/01/20 02:09:18;;;;;;;;;;;;;;;4.87;85.56;99883.44;4978304;28;1902;-77
2021/01/20 02:11:59;;;;;;;;;;;;;;;4.90;85.46;99869.91;4978595;28;2424;-78
2021/01/20 02:14:24;;;;;;;;;;;;;;;4.90;84.99;99877.31;4978149;28;828;-77
2021/01/20 02:17:20;;;;;;;;;;;;;;;4.84;86.41;99886.81;4978997;28;910;-78
2021/01/20 02:19:55;;;;;;;;;;;;;;;4.86;84.85;99885.38;4978539;28;988;-78
2021/01/20 02:22:37;;;;;;;;;;;;;;;4.88;85.55;99877.63;4978073;28;2382;-79
2021/01/20 02:25:13;;;;;;;;;;;;;;;4.86;85.59;99879.91;4978138;28;2287;-78
2021/01/20 02:27:50;;;;;;;;;;;;;;;4.88;85.70;99880.38;4978145;28;2212;-78
2021/01/20 02:30:18;;;;;;;;;;;;;;;4.85;85.74;99878.28;4978565;28;952;-78
2021/01/20 02:32:49;;;;;;;;;;;;;;;4.84;86.39;99867.66;4979011;28;1879;-78
2021/01/20 02:35:15;;;;;;;;;;;;;;;4.67;88.65;99890.41;4981675;28;985;-77
2021/01/20 02:37:40;;;;;;;;;;;;;;;4.64;87.73;99880.16;4977591;28;1760;-78
2021/01/20 02:40:06;;;;;;;;;;;;;;;4.59;87.94;99870.19;4978360;28;1896;-78
2021/01/20 02:42:31;;;;;;;;;;;;;;;4.57;88.47;99891.59;4977053;28;1899;-78
2021/01/20 02:44:57;;;;;;;;;;;;;;;4.57;88.70;99883.38;4977972;28;865;-77
2021/01/20 02:47:24;;;;;;;;;;;;;;;4.54;88.85;99878.56;4977690;28;2076;-78
2021/01/20 02:49:50;;;;;;;;;;;;;;;4.57;88.60;99871.63;4981625;28;893;-77
2021/01/20 02:52:47;;;;;;;;;;;;;;;4.57;88.37;99877.09;4977490;28;2127;-77
2021/01/20 02:55:17;;;;;;;;;;;;;;;4.57;88.43;99875.19;4977174;28;2232;-78
2021/01/20 02:57:46;;;;;;;;;;;;;;;4.57;87.98;99872.44;4957717;28;1313;-77
2021/01/20 03:00:13;;;;;;;;;;;;;;;4.56;88.16;99873.56;4957981;28;992;-77
2021/01/20 03:02:42;;;;;;;;;;;;;;;4.55;88.03;99868.44;4958510;28;1958;-77
2021/01/20 03:05:10;;;;;;;;;;;;;;;4.57;87.86;99867.00;4958533;28;2109;-78
2021/01/20 03:07:38;;;;;;;;;;;;;;;4.59;87.83;99870.19;4962787;28;2140;-78
2021/01/20 03:10:06;;;;;;;;;;;;;;;4.64;87.05;99863.75;4975573;28;1276;-78
2021/01/20 03:12:32;;;;;;;;;;;;;;;4.66;86.80;99853.28;4977676;28;1326;-78
2021/01/20 03:14:59;;;;;;;;;;;;;;;4.76;85.62;99863.03;4977013;28;807;-77
2021/01/20 03:17:32;;;;;;;;;;;;;;;4.73;86.20;99861.78;4976541;28;1295;-77
2021/01/20 03:19:58;;;;;;;;;;;;;;;4.73;85.57;99853.56;4976818;28;2068;-77
2021/01/20 03:22:23;;;;;;;;;;;;;;;4.64;86.50;99844.59;4976599;28;2204;-77
2021/01/20 03:24:48;;;;;;;;;;;;;;;4.71;85.70;99836.69;4976694;28;1867;-77
2021/01/20 03:27:14;;;;;;;;;;;;;;;4.64;86.77;99836.41;4976028;28;1937;-78
2021/01/20 03:29:39;;;;;;;;;;;;;;;4.67;86.00;99839.28;4977066;28;798;-78
2021/01/20 03:32:05;;;;;;;;;;;;;;;4.66;85.78;99843.13;4977055;28;1004;-77
2021/01/20 03:34:30;;;;;;;;;;;;;;;4.70;85.43;99833.13;4976718;28;2139;-78
2021/01/20 03:36:55;;;;;;;;;;;;;;;4.71;85.33;99834.75;4977270;28;1897;-77
2021/01/20 03:39:21;;;;;;;;;;;;;;;4.76;85.20;99824.75;4976803;28;1259;-77
2021/01/20 03:41:46;;;;;;;;;;;;;;;4.70;85.54;99837.81;4976542;28;1981;-78
2021/01/20 03:44:11;;;;;;;;;;;;;;;4.69;85.20;99823.34;4976026;28;2123;-77
2021/01/20 03:46:36;;;;;;;;;;;;;;;4.78;84.58;99830.72;4976699;28;958;-77
2021/01/20 03:49:02;;;;;;;;;;;;;;;4.77;83.98;99820.88;4978007;28;1276;-77
2021/01/20 03:51:29;;;;;;;;;;;;;;;4.74;84.40;99816.91;4985427;28;1727;-77
2021/01/20 03:53:57;;;;;;;;;;;;;;;4.70;84.60;99814.00;4977222;28;915;-78
2021/01/20 03:56:23;;;;;;;;;;;;;;;4.76;84.07;99816.53;4976707;28;2046;-77
2021/01/20 03:58:48;;;;;;;;;;;;;;;4.78;83.83;99779.53;4976240;28;1358;-77
2021/01/20 04:01:13;;;;;;;;;;;;;;;4.75;83.95;99817.69;4976452;28;2219;-77
2021/01/20 04:03:39;;;;;;;;;;;;;;;4.77;84.33;99799.00;4981481;28;1755;-77
2021/01/20 04:06:04;;;;;;;;;;;;;;;4.74;84.59;99788.72;4976525;28;984;-78
2021/01/20 04:08:29;;;;;;;;;;;;;;;4.72;84.44;99789.06;4975773;28;1983;-78
2021/01/20 04:10:55;;;;;;;;;;;;;;;4.64;85.48;99798.13;4976379;28;888;-78
2021/01/20 04:13:22;;;;;;;;;;;;;;;4.61;85.70;99798.78;4976809;28;2283;-78
2021/01/20 04:15:48;;;;;;;;;;;;;;;4.55;85.66;99800.91;4982198;28;933;-78
2021/01/20 04:18:13;;;;;;;;;;;;;;;4.57;85.24;99806.84;4975825;28;2180;-78
2021/01/20 04:20:38;;;;;;;;;;;;;;;4.58;85.13;99796.69;4976807;28;1044;-78
2021/01/20 04:23:05;;;;;;;;;;;;;;;4.61;84.63;99804.25;4976074;28;1894;-78
2021/01/20 04:25:30;;;;;;;;;;;;;;;4.57;84.76;99801.38;4976688;28;911;-78
2021/01/20 04:27:56;;;;;;;;;;;;;;;4.62;84.18;99803.91;4975038;28;1431;-77
2021/01/20 04:30:21;;;;;;;;;;;;;;;4.60;84.45;99800.72;4976941;28;796;-78
2021/01/20 04:32:47;;;;;;;;;;;;;;;4.60;84.95;99791.69;4976918;28;2415;-78
2021/01/20 04:35:12;;;;;;;;;;;;;;;4.62;84.28;99792.16;4976110;28;2099;-78
2021/01/20 04:37:37;;;;;;;;;;;;;;;4.67;83.60;99787.31;4977594;28;1862;-78
2021/01/20 04:40:04;;;;;;;;;;;;;;;4.68;83.77;99788.91;4981542;28;989;-78
2021/01/20 04:42:30;;;;;;;;;;;;;;;4.70;83.27;99791.31;4980263;28;1903;-78
2021/01/20 04:44:55;;;;;;;;;;;;;;;4.66;83.84;99785.72;4980713;28;1028;-78
2021/01/20 04:47:21;;;;;;;;;;;;;;;4.70;83.30;99788.59;4979557;28;2404;-78
2021/01/20 04:49:50;;;;;;;;;;;;;;;4.72;83.35;99775.38;4980392;28;893;-77
2021/01/20 04:52:17;;;;;;;;;;;;;;;4.71;83.35;99798.41;4981043;28;800;-78
2021/01/20 04:54:44;;;;;;;;;;;;;;;4.73;83.53;99787.13;4981253;28;889;-77
2021/01/20 04:57:12;;;;;;;;;;;;;;;4.75;83.32;99793.06;4980012;28;885;-78
2021/01/20 04:59:40;;;;;;;;;;;;;;;4.71;83.75;99779.25;4979766;28;2082;-77
2021/01/20 05:02:05;;;;;;;;;;;;;;;4.72;83.66;99775.38;4979749;28;1959;-77
2021/01/20 05:04:31;;;;;;;;;;;;;;;4.69;83.86;99779.59;4979717;28;849;-77
2021/01/20 05:06:57;;;;;;;;;;;;;;;4.71;84.14;99776.53;4979328;28;2151;-77
2021/01/20 05:09:22;;;;;;;;;;;;;;;4.73;83.81;99784.41;4978826;28;2152;-77
2021/01/20 05:11:48;;;;;;;;;;;;;;;4.71;84.41;99776.53;4979637;28;894;-77
2021/01/20 05:14:17;;;;;;;;;;;;;;;4.70;84.76;99774.91;4980166;28;2025;-77
2021/01/20 05:16:49;;;;;;;;;;;;;;;4.69;85.00;99776.84;4984927;28;901;-77
2021/01/20 05:19:14;;;;;;;;;;;;;;;4.64;85.23;99776.25;4979480;28;1377;-77
2021/01/20 05:21:40;;;;;;;;;;;;;;;4.64;84.96;99765.31;4979289;28;1953;-78
2021/01/20 05:24:22;;;;;;;;;;;;;;;4.64;84.95;99768.84;4979271;28;1925;-78
2021/01/20 05:26:49;;;;;;;;;;;;;;;4.69;84.83;99765.91;4979758;28;859;-78
2021/01/20 05:29:15;;;;;;;;;;;;;;;4.65;85.24;99778.63;4979361;28;2329;-77
2021/01/20 05:31:41;;;;;;;;;;;;;;;4.67;85.81;99775.56;4979026;28;879;-78
2021/01/20 05:34:22;;;;;;;;;;;;;;;4.65;86.21;99772.38;4980290;28;871;-78
2021/01/20 05:37:01;;;;;;;;;;;;;;;4.54;87.21;99766.47;4979039;28;2224;-78
2021/01/20 05:39:26;;;;;;;;;;;;;;;4.46;88.44;99761.84;4980816;28;1323;-78
2021/01/20 05:42:04;;;;;;;;;;;;;;;4.45;89.04;99752.06;4978676;28;2073;-78
2021/01/20 05:44:30;;;;;;;;;;;;;;;4.43;89.81;99759.75;4979155;28;875;-77
2021/01/20 05:46:56;;;;;;;;;;;;;;;4.36;90.04;99760.28;4978940;28;863;-77
2021/01/20 05:49:27;;;;;;;;;;;;;;;4.24;91.21;99776.56;4977320;28;1917;-77
2021/01/20 05:51:53;;;;;;;;;;;;;;;4.22;91.39;99752.31;4978587;28;879;-77
2021/01/20 05:54:38;;;;;;;;;;;;;;;4.18;91.81;99756.03;4957900;28;1901;-77
2021/01/20 05:57:14;;;;;;;;;;;;;;;4.19;92.42;99739.31;4977533;28;2109;-76
2021/01/20 05:59:41;;;;;;;;;;;;;;;4.18;92.38;99736.88;4978586;28;910;-77
2021/01/20 06:02:11;;;;;;;;;;;;;;;4.27;91.96;99727.53;4978212;28;2190;-77
2021/01/20 06:04:38;;;;;;;;;;;;;;;4.38;90.68;99729.88;4978512;28;851;-77
2021/01/20 06:07:09;;;;;;;;;;;;;;;4.36;91.44;99730.22;4978250;28;2131;-78
2021/01/20 06:09:40;;;;;;;;;;;;;;;4.38;90.71;99727.97;4978681;28;2034;-78
2021/01/20 06:12:07;;;;;;;;;;;;;;;4.46;90.25;99723.56;4977633;28;886;-77
2021/01/20 06:14:33;;;;;;;;;;;;;;;4.50;90.24;99716.34;4978512;28;2118;-77
2021/01/20 06:17:30;;;;;;;;;;;;;;;4.53;89.92;99696.50;4977603;28;1746;-77
2021/01/20 06:20:00;;;;;;;;;;;;;;;4.59;89.46;99714.34;4975995;28;1051;-78
2021/01/20 06:22:26;;;;;;;;;;;;;;;4.60;89.53;99699.53;4977831;28;1894;-78
2021/01/20 06:24:57;;;;;;;;;;;;;;;4.68;88.77;99698.66;4980714;28;1055;-76
2021/01/20 06:27:35;;;;;;;;;;;;;;;4.70;88.95;99699.13;4986339;28;1390;-78
2021/01/20 06:30:13;;;;;;;;;;;;;;;4.73;88.39;99694.94;4983118;28;985;-77
2021/01/20 06:32:44;;;;;;;;;;;;;;;4.73;88.49;99700.41;4976910;28;2153;-77
2021/01/20 06:35:10;;;;;;;;;;;;;;;4.77;88.16;99711.50;4971385;28;1689;-77
2021/01/20 06:37:38;;;;;;;;;;;;;;;4.76;88.63;99696.19;4977692;28;1271;-77
2021/01/20 06:40:26;;;;;;;;;;;;;;;4.93;87.21;99689.81;4978100;28;1707;-77
2021/01/20 06:42:53;;;;;;;;;;;;;;;4.89;87.39;99703.34;4977562;28;2099;-77
2021/01/20 06:45:26;;;;;;;;;;;;;;;4.86;87.36;99701.28;4976774;28;1903;-77
2021/01/20 06:48:00;;;;;;;;;;;;;;;4.90;86.97;99694.81;4977023;28;1771;-77
2021/01/20 06:50:26;;;;;;;;;;;;;;;4.96;86.55;99700.09;4977170;28;842;-77
2021/01/20 06:53:01;;;;;;;;;;;;;;;4.90;86.80;99708.50;4977490;28;1932;-77
2021/01/20 06:55:31;;;;;;;;;;;;;;;4.99;86.05;99704.91;4978180;28;942;-77
2021/01/20 06:58:17;;;;;;;;;;;;;;;5.00;86.11;99696.38;4982847;28;1393;-76
2021/01/20 07:00:43;;;;;;;;;;;;;;;5.05;85.34;99690.69;4977803;28;947;-77
2021/01/20 07:03:08;;;;;;;;;;;;;;;5.13;84.73;99697.22;4978122;28;1911;-77
2021/01/20 07:05:39;;;;;;;;;;;;;;;5.10;84.88;99697.88;4977710;28;2067;-78
2021/01/20 07:08:08;;;;;;;;;;;;;;;5.17;84.45;99691.88;4976568;28;1907;-77
2021/01/20 07:11:02;;;;;;;;;;;;;;;5.16;84.63;99703.97;4977414;28;831;-77
2021/01/20 07:13:33;;;;;;;;;;;;;;;5.28;83.43;99691.13;4978079;28;859;-77
2021/01/20 07:15:59;;;;;;;;;;;;;;;5.24;84.00;99694.88;4978638;28;817;-78
2021/01/20 07:18:25;;;;;;;;;;;;;;;5.29;83.68;99711.09;4977271;28;1299;-77
2021/01/20 07:20:52;;;;;;;;;;;;;;;5.35;83.41;99692.53;4976730;28;2403;-77
2021/01/20 07:23:18;;;;;;;;;;;;;;;5.34;83.40;99690.91;4977068;28;1968;-78
2021/01/20 07:25:47;;;;;;;;;;;;;;;5.37;83.07;99676.56;4977496;28;814;-77
2021/01/20 07:28:13;;;;;;;;;;;;;;;5.47;82.89;99687.09;4977069;28;1855;-77
2021/01/20 07:30:38;;;;;;;;;;;;;;;5.55;81.89;99675.22;4978900;28;2014;-77
2021/01/20 07:33:17;;;;;;;;;;;;;;;5.52;82.34;99695.09;4976797;28;1868;-77
2021/01/20 07:35:42;;;;;;;;;;;;;;;5.55;82.01;99683.44;4977458;28;1855;-77
2021/01/20 07:38:08;;;;;;;;;;;;;;;5.58;81.96;99684.72;4976888;28;1358;-77
2021/01/20 07:40:37;;;;;;;;;;;;;;;5.70;81.27;99670.28;4978491;28;775;-77
2021/01/20 07:43:03;;;;;;;;;;;;;;;5.65;81.77;99674.81;4980257;28;1875;-78
2021/01/20 07:45:30;;;;;;;;;;;;;;;5.64;82.18;99675.97;4976326;28;2132;-77
2021/01/20 07:47:56;;;;;;;;;;;;;;;5.67;81.85;99682.69;4976558;28;2247;-77
2021/01/20 07:50:38;;;;;;;;;;;;;;;5.72;81.15;99677.00;4977137;28;2204;-77
2021/01/20 07:53:04;;;;;;;;;;;;;;;5.75;81.60;99679.06;4977020;28;1984;-77
2021/01/20 07:55:30;;;;;;;;;;;;;;;5.83;80.59;99688.31;4978291;28;2098;-77
2021/01/20 07:57:57;;;;;;;;;;;;;;;5.80;81.23;99680.78;4979042;28;1373;-77
2021/01/20 08:00:22;;;;;;;;;;;;;;;5.86;80.75;99690.38;4978311;28;2250;-77
2021/01/20 08:02:48;;;;;;;;;;;;;;;5.86;80.48;99686.84;4981634;28;2389;-77
2021/01/20 08:05:14;;;;;;;;;;;;;;;5.97;80.36;99688.84;4981338;28;997;-77
2021/01/20 08:07:39;;;;;;;;;;;;;;;6.00;79.55;99674.47;4981739;28;1849;-76
2021/01/20 08:10:17;;;;;;;;;;;;;;;5.99;79.36;99678.31;4981871;28;1940;-77
2021/01/20 08:12:43;;;;;;;;;;;;;;;6.03;79.20;99684.72;4983971;28;2190;-76
2021/01/20 08:15:09;;;;;;;;;;;;;;;6.05;79.14;99689.06;4986212;28;2044;-76
2021/01/20 08:17:35;;;;;;;;;;;;;;;6.08;79.10;99682.91;4986258;28;1307;-76
2021/01/20 08:20:00;;;;;;;;;;;;;;;6.08;78.99;99677.44;4986276;28;2223;-76
2021/01/20 08:22:26;;;;;;;;;;;;;;;6.21;77.48;99674.34;4985836;28;1968;-76
2021/01/20 08:24:52;;;;;;;;;;;;;;;6.17;78.16;99673.41;4982672;28;2048;-77
2021/01/20 08:27:25;;;;;;;;;;;;;;;6.25;77.13;99668.97;4978943;28;1267;-76
2021/01/20 08:29:51;;;;;;;;;;;;;;;6.21;77.81;99671.59;4980048;28;2120;-77
2021/01/20 08:32:18;;;;;;;;;;;;;;;6.26;77.43;99661.53;4980092;28;2462;-77
2021/01/20 08:34:45;;;;;;;;;;;;;;;6.30;77.08;99657.78;4979678;28;1842;-77
2021/01/20 08:37:13;;;;;;;;;;;;;;;6.36;76.69;99664.63;4979446;28;1263;-77
2021/01/20 08:39:56;;;;;;;;;;;;;;;6.43;75.91;99644.06;4979176;28;2115;-77
2021/01/20 08:42:34;;;;;;;;;;;;;;;6.41;77.21;99647.13;4979955;28;1981;-77
2021/01/20 08:45:06;;;;;;;;;;;;;;;6.38;76.89;99650.56;4985961;28;2122;-78
2021/01/20 08:47:57;;;;;;;;;;;;;;;6.33;77.23;99643.41;4979656;28;1299;-77
2021/01/20 08:50:43;;;;;;;;;;;;;;;6.39;76.89;99650.22;4978016;28;1943;-77
2021/01/20 08:53:23;;;;;;;;;;;;;;;6.34;77.27;99644.19;5000223;28;857;-77
2021/01/20 08:55:49;;;;;;;;;;;;;;;6.34;77.55;99644.19;5003087;28;818;-78
2021/01/20 08:58:18;;;;;;;;;;;;;;;6.24;77.89;99661.09;4999765;28;1383;-77
2021/01/20 09:00:45;;;;;;;;;;;;;;;6.28;77.49;99659.25;4999190;28;786;-77
2021/01/20 09:03:22;;;;;;;;;;;;;;;6.47;75.47;99662.22;4998494;28;1968;-77
2021/01/20 09:05:49;;;;;;;;;;;;;;;6.43;76.58;99660.50;4979689;28;2506;-76
2021/01/20 09:08:15;;;;;;;;;;;;;;;6.42;76.93;99656.16;4979905;28;2148;-78
2021/01/20 09:10:42;;;;;;;;;;;;;;;6.37;76.72;99652.53;4980011;28;799;-78
2021/01/20 09:13:08;;;;;;;;;;;;;;;6.37;76.69;99649.00;4979908;28;2224;-78
2021/01/20 09:15:33;;;;;;;;;;;;;;;6.38;76.90;99645.91;4978208;28;2011;-78
2021/01/20 09:17:58;;;;;;;;;;;;;;;6.47;75.52;99651.25;4979239;28;1291;-77
2021/01/20 09:20:24;;;;;;;;;;;;;;;6.50;75.78;99639.56;4979284;28;1923;-77
2021/01/20 09:22:50;;;;;;;;;;;;;;;6.52;76.01;99651.03;4978743;28;1898;-77
2021/01/20 09:25:15;;;;;;;;;;;;;;;6.51;76.28;99651.38;4978979;28;799;-77
2021/01/20 09:27:41;;;;;;;;;;;;;;;6.55;74.82;99663.22;4979201;28;1246;-77
2021/01/20 09:30:10;;;;;;;;;;;;;;;6.61;74.75;99659.13;4978864;28;2479;-76
2021/01/20 09:32:39;;;;;;;;;;;;;;;6.63;74.70;99670.53;4979757;28;928;-76
2021/01/20 09:35:12;;;;;;;;;;;;;;;6.63;74.89;99659.56;4980406;28;2119;-76
2021/01/20 09:37:38;;;;;;;;;;;;;;;6.65;74.66;99665.50;4983805;28;1317;-77
2021/01/20 09:40:07;;;;;;;;;;;;;;;6.68;74.64;99672.22;4978701;28;2261;-77
2021/01/20 09:42:34;;;;;;;;;;;;;;;6.76;74.13;99676.78;4979049;28;1961;-77
2021/01/20 09:44:59;;;;;;;;;;;;;;;6.72;74.67;99668.47;4979192;28;868;-77
2021/01/20 09:47:24;;;;;;;;;;;;;;;6.73;74.50;99683.78;4978617;28;1275;-77
2021/01/20 09:49:50;;;;;;;;;;;;;;;6.78;73.66;99680.81;4979150;28;2160;-76
2021/01/20 09:52:17;;;;;;;;;;;;;;;6.82;73.99;99663.63;4978250;28;892;-77
2021/01/20 09:54:43;;;;;;;;;;;;;;;6.85;74.07;99673.91;4978153;28;2073;-77
2021/01/20 09:57:09;;;;;;;;;;;;;;;6.87;73.90;99652.41;4978142;28;1949;-77
2021/01/20 09:59:34;;;;;;;;;;;;;;;6.89;73.99;99680.31;4978660;28;1317;-77
2021/01/20 10:01:59;;;;;;;;;;;;;;;6.87;74.33;99672.44;4978524;28;2157;-77
2021/01/20 10:04:25;;;;;;;;;;;;;;;6.90;73.69;99663.50;4978531;28;2107;-77
2021/01/20 10:06:53;;;;;;;;;;;;;;;6.92;73.56;99660.41;4980639;28;956;-77
2021/01/20 10:09:19;;;;;;;;;;;;;;;6.95;73.94;99665.19;4982174;28;2246;-77
2021/01/20 10:11:45;;;;;;;;;;;;;;;6.99;73.77;99659.81;4981052;28;1903;-77
2021/01/20 10:14:10;;;;;;;;;;;;;;;7.09;73.58;99665.59;4978168;28;1992;-77
2021/01/20 10:16:35;;;;;;;;;;;;;;;7.17;72.49;99668.56;4978193;28;996;-77
2021/01/20 10:19:01;;;;;;;;;;;;;;;7.17;72.78;99663.09;4978321;28;2180;-77
2021/01/20 10:21:26;;;;;;;;;;;;;;;7.19;72.49;99661.56;4978660;28;1894;-77
2021/01/20 10:23:52;;;;;;;;;;;;;;;7.21;72.87;99653.00;4975646;28;2435;-78
2021/01/20 10:26:23;;;;;;;;;;;;;;;7.25;72.73;99646.47;4978481;28;2182;-78
2021/01/20 10:28:48;;;;;;;;;;;;;;;7.33;72.40;99636.44;4976432;28;1452;-78
2021/01/20 10:31:14;;;;;;;;;;;;;;;7.39;72.53;99636.97;4973606;28;2183;-78
2021/01/20 10:33:41;;;;;;;;;;;;;;;7.40;72.79;99630.34;4958342;28;1599;-78
2021/01/20 10:36:06;;;;;;;;;;;;;;;7.44;72.52;99639.47;4957703;28;1597;-78
2021/01/20 10:38:32;;;;;;;;;;;;;;;7.42;72.07;99614.31;4973994;28;1963;-78
2021/01/20 10:40:58;;;;;;;;;;;;;;;7.39;72.85;99626.81;4975846;28;1898;-78
2021/01/20 10:43:23;;;;;;;;;;;;;;;7.64;72.21;99607.44;4964077;28;1362;-77
2021/01/20 10:45:48;;;;;;;;;;;;;;;7.66;71.81;99605.91;4965705;28;2046;-77
2021/01/20 10:48:14;;;;;;;;;;;;;;;7.60;72.60;99620.28;4977332;28;1737;-76
2021/01/20 10:50:39;;;;;;;;;;;;;;;7.66;72.42;99614.16;4977554;28;2097;-77
2021/01/20 10:53:04;;;;;;;;;;;;;;;7.79;72.54;99609.38;4977246;28;1933;-77
2021/01/20 10:55:29;;;;;;;;;;;;;;;7.85;72.19;99607.16;4977387;28;2233;-77
2021/01/20 10:57:55;;;;;;;;;;;;;;;7.88;73.19;99617.47;4977549;28;2103;-78
2021/01/20 11:00:20;;;;;;;;;;;;;;;7.88;72.64;99612.75;4977189;28;2921;-77
2021/01/20 11:02:49;;;;;;;;;;;;;;;7.98;71.83;99600.44;4972876;28;1964;-78
2021/01/20 11:05:15;;;;;;;;;;;;;;;7.98;71.89;99603.19;4967408;28;1394;-78
2021/01/20 11:07:40;;;;;;;;;;;;;;;7.92;72.62;99601.84;4964521;28;1554;-77
2021/01/20 11:10:06;;;;;;;;;;;;;;;7.84;72.95;99613.84;4973882;28;1478;-77
2021/01/20 11:12:31;;;;;;;;;;;;;;;7.73;73.61;99610.78;4972101;28;1668;-78
2021/01/20 11:14:56;;;;;;;;;;;;;;;7.70;73.35;99600.53;4957076;28;1476;-77
2021/01/20 11:17:22;;;;;;;;;;;;;;;7.68;74.07;99613.81;4965708;28;1763;-78
2021/01/20 11:19:47;;;;;;;;;;;;;;;7.69;73.86;99609.91;4974898;28;1723;-76
2021/01/20 11:22:12;;;;;;;;;;;;;;;7.70;74.30;99603.28;4977356;28;1951;-77
2021/01/20 11:24:43;;;;;;;;;;;;;;;7.76;73.86;99601.84;4982995;28;1057;-77
2021/01/20 11:27:09;;;;;;;;;;;;;;;7.75;73.77;99572.75;4976764;28;1896;-76
2021/01/20 11:29:34;;;;;;;;;;;;;;;7.66;73.91;99594.94;4977480;28;1371;-77
2021/01/20 11:31:59;;;;;;;;;;;;;;;7.60;74.87;99593.59;4976448;28;981;-77
2021/01/20 11:34:25;;;;;;;;;;;;;;;7.63;74.64;99584.66;4976900;28;865;-78
2021/01/20 11:36:50;;;;;;;;;;;;;;;7.71;74.35;99586.41;4976074;28;2074;-77
2021/01/20 11:39:15;;;;;;;;;;;;;;;7.76;73.89;99570.84;4974950;28;2364;-78
2021/01/20 11:41:41;;;;;;;;;;;;;;;7.85;74.09;99580.47;4972072;28;2160;-77
2021/01/20 11:44:06;;;;;;;;;;;;;;;7.81;73.60;99584.31;4974583;28;1381;-77
2021/01/20 11:46:31;;;;;;;;;;;;;;;7.80;73.66;99563.47;4976855;28;1598;-78
2021/01/20 11:49:06;;;;;;;;;;;;;;;7.76;73.46;99559.84;4974803;28;1876;-77
2021/01/20 11:51:31;;;;;;;;;;;;;;;7.83;73.69;99563.53;4975154;28;1606;-77
2021/01/20 11:53:58;;;;;;;;;;;;;;;7.97;72.64;99570.53;4974717;28;1604;-77
2021/01/20 11:56:23;;;;;;;;;;;;;;;7.99;73.15;99587.47;4975587;28;1520;-77
2021/01/20 11:58:49;;;;;;;;;;;;;;;8.00;73.48;99573.38;4968877;28;1610;-77
2021/01/20 12:01:14;;;;;;;;;;;;;;;8.00;73.02;99567.88;4956466;28;1902;-77
2021/01/20 12:03:39;;;;;;;;;;;;;;;8.04;72.75;99568.75;4967500;28;1903;-77
2021/01/20 12:06:05;;;;;;;;;;;;;;;8.13;72.32;99570.50;4974251;28;1564;-77
2021/01/20 12:08:30;;;;;;;;;;;;;;;8.18;72.39;99560.03;4971097;28;1617;-76
2021/01/20 12:10:56;;;;;;;;;;;;;;;8.33;72.00;99539.16;4970912;28;1830;-76
2021/01/20 12:13:22;;;;;;;;;;;;;;;8.61;70.72;99541.72;4976864;28;2479;-77
2021/01/20 12:15:49;;;;;;;;;;;;;;;8.66;70.51;99543.38;4980574;28;2272;-77
2021/01/20 12:18:15;;;;;;;;;;;;;;;8.56;70.21;99511.75;4976184;28;2179;-77
2021/01/20 12:20:40;;;;;;;;;;;;;;;8.41;70.72;99524.38;4976566;28;849;-77
2021/01/20 12:23:06;;;;;;;;;;;;;;;8.48;69.88;99518.28;4976330;28;1947;-78
2021/01/20 12:25:31;;;;;;;;;;;;;;;8.60;69.50;99517.31;4976352;28;1814;-78
2021/01/20 12:27:56;;;;;;;;;;;;;;;9.06;67.99;99513.88;4976343;28;2036;-77
2021/01/20 12:30:22;;;;;;;;;;;;;;;9.96;64.73;99505.88;4975647;28;1806;-77
2021/01/20 12:32:47;;;;;;;;;;;;;;;11.34;59.96;99502.78;4957354;29;886;-77
2021/01/20 12:35:13;;;;;;;;;;;;;;;14.03;52.45;99489.06;4973585;28;2424;-78
2021/01/20 12:37:38;;;;;;;;;;;;;;;14.66;49.45;99501.16;4976051;28;2068;-78
2021/01/20 12:40:04;;;;;;;;;;;;;;;13.87;49.44;99483.94;4977829;28;1063;-78
2021/01/20 12:42:29;;;;;;;;;;;;;;;12.31;53.61;99514.53;4975865;28;2386;-76
2021/01/20 12:44:54;;;;;;;;;;;;;;;11.05;56.53;99499.72;4975918;28;1059;-76
2021/01/20 12:47:22;;;;;;;;;;;;;;;11.37;56.75;99491.75;4975966;28;2044;-76
2021/01/20 12:49:47;;;;;;;;;;;;;;;14.43;47.82;99498.06;4979344;28;2170;-76
2021/01/20 12:52:12;;;;;;;;;;;;;;;13.28;50.16;99501.75;4975842;28;1820;-76
2021/01/20 12:54:37;;;;;;;;;;;;;;;12.26;52.64;99496.31;4975760;28;925;-76
2021/01/20 12:57:03;;;;;;;;;;;;;;;10.82;56.05;99492.41;4975807;28;855;-76
2021/01/20 12:59:28;;;;;;;;;;;;;;;10.08;58.69;99499.34;4979606;28;1342;-76
2021/01/20 13:01:54;;;;;;;;;;;;;;;9.84;59.66;99488.75;4979560;28;1936;-75
2021/01/20 13:04:19;;;;;;;;;;;;;;;9.73;59.55;99483.09;4979551;28;2108;-77
2021/01/20 13:06:48;;;;;;;;;;;;;;;9.64;59.38;99494.38;4978358;28;2147;-76
2021/01/20 13:09:14;;;;;;;;;;;;;;;9.48;60.21;99491.78;4979502;28;1370;-76
2021/01/20 13:11:40;;;;;;;;;;;;;;;9.39;60.48;99485.72;4981464;28;2207;-77